South Natick, Massachusetts
Current Conditions -  °F | °C
As of 6:53 PM on Sunday 21 Dec 2014 (Local Time) from KOWD Reporting Station
Overcast Overcast  
Wind Chill: 33°   Ceiling: 2400
Heat Index: 33°   Visibility: 10mi
Dew Point: 29°   Wind: 3mph
Humidity: 85%   Direction: 320°NW
Pressure: 30.34"   Gusts: NA
Location:  42.2868°N, 71.3531°W
Report Text: KOWD 212353Z 32003KT 10SM OVC024 01/M02 A3034 RMK AO2 SLP274 60000 T00061017 10011 20006 53011
Loading
Personal Weather Stations






























Interactive Weather Map New forecast layout! Learn more

10-Day Weather Forecast

Advertisements
Track Severe Weather on mobile